Terminal Aerodrome Forecast
Issued by NWS Quad Cities IA IL

Home | Current Version | Previous Version | Text Only | Print | Product List | Glossary On
Versions: 1 2 3 4 5 6 7 8 9 10 11 12 13 14 15
000
FTUS43 KDVN 191727
TAFMLI
TAF
KMLI 191727Z 1918/2018 30007KT P6SM FEW250
     FM200000 36005KT P6SM SKC
     FM200500 VRB03KT 6SM BR SKC
     FM201400 09005KT P6SM FEW250=

USA.gov is the U.S. government's official web portal to all federal, state and local government web resources and services.